createdAt,value
2019-01-18T00:00:49.313Z,2.81
2019-01-18T00:01:49.318Z,2.81
2019-01-18T00:02:49.587Z,2.77
2019-01-18T00:03:49.640Z,2.77
2019-01-18T00:04:49.930Z,2.77
2019-01-18T00:05:49.270Z,2.77
2019-01-18T00:06:49.336Z,2.79
2019-01-18T00:08:02.497Z,2.76
2019-01-18T00:08:49.232Z,2.76
2019-01-18T00:09:49.338Z,2.77
2019-01-18T00:10:49.386Z,2.76
2019-01-18T00:11:49.454Z,2.75
2019-01-18T00:12:49.324Z,2.76
2019-01-18T00:13:49.282Z,2.76
2019-01-18T00:14:49.590Z,2.72
2019-01-18T00:15:49.299Z,2.7
2019-01-18T00:16:49.468Z,2.71
2019-01-18T00:17:49.438Z,2.73
2019-01-18T00:18:49.246Z,2.73
2019-01-18T00:19:49.082Z,2.78
2019-01-18T00:20:49.286Z,2.8
2019-01-18T00:21:49.318Z,2.79
2019-01-18T00:22:49.622Z,2.79
2019-01-18T00:23:50.020Z,2.78
2019-01-18T00:24:49.650Z,2.77
2019-01-18T00:25:49.239Z,2.8
2019-01-18T00:26:49.396Z,2.78
2019-01-18T00:27:49.266Z,2.8
2019-01-18T00:28:49.477Z,2.77
2019-01-18T00:29:49.240Z,2.78
2019-01-18T00:30:49.224Z,2.78
2019-01-18T00:31:49.312Z,2.77
2019-01-18T00:32:49.264Z,2.77
2019-01-18T00:33:49.277Z,2.77
2019-01-18T00:34:56.164Z,2.77
2019-01-18T00:35:49.260Z,2.78
2019-01-18T00:37:07.047Z,2.8
2019-01-18T00:37:49.187Z,2.81
2019-01-18T00:38:49.253Z,2.8
2019-01-18T00:39:49.507Z,2.78
2019-01-18T00:40:49.266Z,2.81
2019-01-18T00:41:49.485Z,2.81
2019-01-18T00:42:49.223Z,2.8
2019-01-18T00:43:49.245Z,2.78
2019-01-18T00:44:49.214Z,2.77
2019-01-18T00:45:49.260Z,2.82
2019-01-18T00:46:49.133Z,2.8
2019-01-18T00:47:49.189Z,2.81
2019-01-18T00:48:49.251Z,2.81
2019-01-18T00:49:49.258Z,2.77
2019-01-18T00:50:49.618Z,2.77
2019-01-18T00:51:49.300Z,2.77
2019-01-18T00:52:49.205Z,2.76
2019-01-18T00:53:49.973Z,2.77
2019-01-18T00:54:49.524Z,2.76
2019-01-18T00:55:50.794Z,2.77
2019-01-18T00:56:49.314Z,2.79
2019-01-18T00:57:49.212Z,2.8
2019-01-18T00:58:49.177Z,2.82
2019-01-18T00:59:49.490Z,2.8
2019-01-18T01:00:49.363Z,2.81
2019-01-18T01:01:49.204Z,2.82
2019-01-18T01:02:49.606Z,2.82
2019-01-18T01:03:50.767Z,2.82
2019-01-18T01:04:49.518Z,2.83
2019-01-18T01:05:49.516Z,2.85
2019-01-18T01:06:49.349Z,2.83
2019-01-18T01:07:49.864Z,2.84
2019-01-18T01:08:49.190Z,2.82
2019-01-18T01:09:51.235Z,2.83
2019-01-18T01:10:49.715Z,2.84
2019-01-18T01:11:49.880Z,2.85
2019-01-18T01:12:49.193Z,2.87
2019-01-18T01:13:49.349Z,2.84
2019-01-18T01:14:49.103Z,2.87
2019-01-18T01:15:49.210Z,2.84
2019-01-18T01:16:49.317Z,2.86
2019-01-18T01:17:49.221Z,2.84
2019-01-18T01:18:49.239Z,2.84
2019-01-18T01:19:49.205Z,2.85
2019-01-18T01:20:49.224Z,2.87
2019-01-18T01:21:49.440Z,2.88
2019-01-18T01:22:49.318Z,2.88
2019-01-18T01:23:49.450Z,2.89
2019-01-18T01:24:49.553Z,2.89
2019-01-18T01:25:49.281Z,2.89
2019-01-18T01:26:49.188Z,2.89
2019-01-18T01:27:49.147Z,2.89
2019-01-18T01:28:49.255Z,2.9
2019-01-18T01:29:49.480Z,2.93
2019-01-18T01:30:49.285Z,2.94
2019-01-18T01:31:49.165Z,2.89
2019-01-18T01:32:49.207Z,2.87
2019-01-18T01:33:49.425Z,2.88
2019-01-18T01:34:49.137Z,2.87
2019-01-18T01:35:49.222Z,2.84
2019-01-18T01:36:49.540Z,2.85
2019-01-18T01:37:49.265Z,2.82
2019-01-18T01:38:49.327Z,2.8
2019-01-18T01:39:49.362Z,2.8
2019-01-18T01:40:48.955Z,2.78
2019-01-18T01:41:49.187Z,2.8
2019-01-18T01:42:49.181Z,2.77
2019-01-18T01:44:10.178Z,2.78
2019-01-18T01:44:49.248Z,2.77
2019-01-18T01:45:49.229Z,2.8
2019-01-18T01:46:49.482Z,2.79
2019-01-18T01:47:49.359Z,2.8
2019-01-18T01:48:49.197Z,2.79
2019-01-18T01:49:49.208Z,2.79
2019-01-18T01:50:49.390Z,2.81
2019-01-18T01:51:49.242Z,2.84
2019-01-18T01:52:49.326Z,2.84
2019-01-18T01:53:49.360Z,2.83
2019-01-18T01:54:49.213Z,2.85
2019-01-18T01:55:49.347Z,2.9
2019-01-18T01:56:49.202Z,2.89
2019-01-18T01:58:49.322Z,2.92
2019-01-18T01:59:50.324Z,2.92
2019-01-18T02:00:49.135Z,2.9
2019-01-18T02:01:49.425Z,2.92
2019-01-18T02:02:49.120Z,2.91
2019-01-18T02:03:49.417Z,2.89
2019-01-18T02:04:50.920Z,2.89
2019-01-18T02:05:49.484Z,2.88
2019-01-18T02:06:55.646Z,2.89
2019-01-18T02:07:49.637Z,2.87
2019-01-18T02:08:49.113Z,2.88
2019-01-18T02:09:49.141Z,2.84
2019-01-18T02:10:49.147Z,2.83
2019-01-18T02:11:49.201Z,2.86
2019-01-18T02:12:49.105Z,2.77
2019-01-18T02:13:49.415Z,2.77
2019-01-18T02:14:49.150Z,2.76
2019-01-18T02:15:49.110Z,2.75
2019-01-18T02:16:49.233Z,2.72
2019-01-18T02:17:49.296Z,2.72
2019-01-18T02:18:49.099Z,2.73
2019-01-18T02:19:49.511Z,2.75
2019-01-18T02:20:49.141Z,2.72
2019-01-18T02:21:49.055Z,2.75
2019-01-18T02:22:49.382Z,2.74
2019-01-18T02:23:49.215Z,2.7
2019-01-18T02:24:48.606Z,2.7
2019-01-18T02:25:49.674Z,2.7
2019-01-18T02:26:49.463Z,2.67
2019-01-18T02:27:49.083Z,2.64
2019-01-18T02:28:49.169Z,2.64
2019-01-18T02:29:48.998Z,2.64
2019-01-18T02:30:49.129Z,2.62
2019-01-18T02:31:49.168Z,2.6
2019-01-18T02:32:49.199Z,2.64
2019-01-18T02:33:49.358Z,2.61
2019-01-18T02:34:49.110Z,2.62
2019-01-18T02:35:49.126Z,2.64
2019-01-18T02:36:49.004Z,2.65
2019-01-18T02:37:49.523Z,2.63
2019-01-18T02:38:49.146Z,2.64
2019-01-18T02:39:49.298Z,2.63
2019-01-18T02:40:49.132Z,2.63
2019-01-18T02:41:49.142Z,2.63
2019-01-18T02:42:49.304Z,2.6
2019-01-18T02:43:49.203Z,2.58
2019-01-18T02:44:49.823Z,2.58
2019-01-18T02:45:55.927Z,2.58
2019-01-18T02:46:50.943Z,2.57
2019-01-18T02:47:49.253Z,2.53
2019-01-18T02:48:49.135Z,2.55
2019-01-18T02:49:49.248Z,2.57
2019-01-18T02:50:49.252Z,2.58
2019-01-18T02:51:49.337Z,2.58
2019-01-18T02:52:49.086Z,2.55
2019-01-18T02:53:49.122Z,2.57
2019-01-18T02:54:49.034Z,2.56
2019-01-18T02:55:49.164Z,2.56
2019-01-18T02:56:49.119Z,2.54
2019-01-18T02:57:49.025Z,2.56
2019-01-18T02:58:49.087Z,2.56
2019-01-18T02:59:49.511Z,2.52
2019-01-18T03:00:49.171Z,2.51
2019-01-18T03:02:49.369Z,2.52
2019-01-18T03:03:48.986Z,2.52
2019-01-18T03:04:49.025Z,2.52
2019-01-18T03:05:49.337Z,2.52
2019-01-18T03:06:49.545Z,2.51
2019-01-18T03:07:49.047Z,2.5
2019-01-18T03:08:48.975Z,2.5
2019-01-18T03:09:49.226Z,2.46
2019-01-18T03:10:48.967Z,2.46
2019-01-18T03:11:49.455Z,2.45
2019-01-18T03:12:49.390Z,2.46
2019-01-18T03:13:48.961Z,2.45
2019-01-18T03:14:49.138Z,2.46
2019-01-18T03:15:49.101Z,2.47
2019-01-18T03:16:48.969Z,2.46
2019-01-18T03:17:49.470Z,2.46
2019-01-18T03:18:48.938Z,2.44
2019-01-18T03:19:49.338Z,2.46
2019-01-18T03:20:50.848Z,2.45
2019-01-18T03:21:48.935Z,2.44
2019-01-18T03:22:49.228Z,2.44
2019-01-18T03:23:49.280Z,2.46
2019-01-18T03:24:49.039Z,2.45
2019-01-18T03:25:48.999Z,2.44
2019-01-18T03:26:49.383Z,2.43
2019-01-18T03:27:49.295Z,2.45
2019-01-18T03:28:49.138Z,2.42
2019-01-18T03:29:48.961Z,2.44
2019-01-18T03:30:48.979Z,2.44
2019-01-18T03:31:49.385Z,2.44
2019-01-18T03:32:49.153Z,2.42
2019-01-18T03:33:49.018Z,2.43
2019-01-18T03:34:49.386Z,2.39
2019-01-18T03:35:48.953Z,2.39
2019-01-18T03:36:49.201Z,2.42
2019-01-18T03:37:49.191Z,2.43
2019-01-18T03:38:50.530Z,2.45
2019-01-18T03:39:48.929Z,2.44
2019-01-18T03:40:55.859Z,2.44
2019-01-18T03:41:49.186Z,2.41
2019-01-18T03:42:49.235Z,2.43
2019-01-18T03:43:49.090Z,2.43
2019-01-18T03:44:48.953Z,2.41
2019-01-18T03:45:49.113Z,2.42
2019-01-18T03:46:49.265Z,2.41
2019-01-18T03:47:48.946Z,2.38
2019-01-18T03:48:49.051Z,2.4
2019-01-18T03:49:49.057Z,2.38
2019-01-18T03:50:48.974Z,2.36
2019-01-18T03:52:49.006Z,2.39
2019-01-18T03:53:49.244Z,2.38
2019-01-18T03:54:48.901Z,2.39
2019-01-18T03:55:48.894Z,2.38
2019-01-18T03:56:49.213Z,2.38
2019-01-18T03:57:49.201Z,2.35
2019-01-18T03:58:48.935Z,2.4
2019-01-18T03:59:49.434Z,2.41
2019-01-18T04:00:49.242Z,2.4
2019-01-18T04:01:48.913Z,2.39
2019-01-18T04:02:49.003Z,2.39
2019-01-18T04:03:48.928Z,2.38
2019-01-18T04:04:48.952Z,2.35
2019-01-18T04:05:49.147Z,2.37
2019-01-18T04:06:48.976Z,2.34
2019-01-18T04:07:48.890Z,2.34
2019-01-18T04:08:48.977Z,2.37
2019-01-18T04:09:48.897Z,2.32
2019-01-18T04:10:48.988Z,2.33
2019-01-18T04:11:49.158Z,2.33
2019-01-18T04:12:49.097Z,2.33
2019-01-18T04:13:49.007Z,2.32
2019-01-18T04:14:48.881Z,2.31
2019-01-18T04:15:48.935Z,2.33
2019-01-18T04:16:48.899Z,2.35
2019-01-18T04:17:48.898Z,2.34
2019-01-18T04:18:49.114Z,2.33
2019-01-18T04:20:49.712Z,2.34
2019-01-18T04:21:49.287Z,2.33
2019-01-18T04:22:48.949Z,2.34
2019-01-18T04:23:49.298Z,2.37
2019-01-18T04:24:49.721Z,2.36
2019-01-18T04:25:48.981Z,2.34
2019-01-18T04:26:48.872Z,2.36
2019-01-18T04:27:49.021Z,2.36
2019-01-18T04:28:48.980Z,2.34
2019-01-18T04:29:49.249Z,2.34
2019-01-18T04:30:48.958Z,2.3
2019-01-18T04:31:49.292Z,2.26
2019-01-18T04:32:49.122Z,2.3
2019-01-18T04:33:49.384Z,2.29
2019-01-18T04:34:49.309Z,2.34
2019-01-18T04:35:49.405Z,2.34
2019-01-18T04:36:49.653Z,2.37
2019-01-18T04:37:48.892Z,2.34
2019-01-18T04:38:49.794Z,2.31
2019-01-18T04:39:50.597Z,2.31
2019-01-18T04:40:52.872Z,2.28
2019-01-18T04:41:48.962Z,2.28
2019-01-18T04:42:49.078Z,2.3
2019-01-18T04:43:49.339Z,2.27
2019-01-18T04:44:49.154Z,2.27
2019-01-18T04:45:49.204Z,2.31
2019-01-18T04:46:49.222Z,2.31
2019-01-18T04:47:49.265Z,2.3
2019-01-18T04:48:48.972Z,2.3
2019-01-18T04:49:50.256Z,2.29
2019-01-18T04:50:49.082Z,2.32
2019-01-18T04:51:49.097Z,2.31
2019-01-18T04:52:48.914Z,2.3
2019-01-18T04:53:50.290Z,2.25
2019-01-18T04:54:48.812Z,2.26
2019-01-18T04:55:48.887Z,2.27
2019-01-18T04:56:49.049Z,2.24
2019-01-18T04:57:49.853Z,2.21
2019-01-18T04:58:49.221Z,2.23
2019-01-18T04:59:49.615Z,2.25
2019-01-18T05:00:48.833Z,2.23
2019-01-18T05:01:56.869Z,2.25
2019-01-18T05:02:49.276Z,2.23
2019-01-18T05:03:49.569Z,2.24
2019-01-18T05:04:49.175Z,2.24
2019-01-18T05:05:50.011Z,2.21
2019-01-18T05:06:48.921Z,2.24
2019-01-18T05:07:48.977Z,2.2
2019-01-18T05:08:49.018Z,2.21
2019-01-18T05:09:49.069Z,2.24
2019-01-18T05:10:48.848Z,2.23
2019-01-18T05:11:48.780Z,2.21
2019-01-18T05:12:48.789Z,2.21
2019-01-18T05:13:48.945Z,2.24
2019-01-18T05:14:48.894Z,2.21
2019-01-18T05:15:48.911Z,2.21
2019-01-18T05:16:48.843Z,2.21
2019-01-18T05:17:48.821Z,2.22
2019-01-18T05:18:49.260Z,2.22
2019-01-18T05:19:48.936Z,2.21
2019-01-18T05:20:49.224Z,2.19
2019-01-18T05:21:48.556Z,2.21
2019-01-18T05:22:48.902Z,2.21
2019-01-18T05:23:49.430Z,2.22
2019-01-18T05:24:55.055Z,2.27
2019-01-18T05:25:48.835Z,2.24
2019-01-18T05:26:48.809Z,2.25
2019-01-18T05:27:48.850Z,2.23
2019-01-18T05:28:48.937Z,2.26
2019-01-18T05:29:48.750Z,2.27
2019-01-18T05:30:49.096Z,2.24
2019-01-18T05:31:48.933Z,2.26
2019-01-18T05:32:49.208Z,2.26
2019-01-18T05:33:49.122Z,2.26
2019-01-18T05:34:49.308Z,2.24
2019-01-18T05:35:48.874Z,2.24
2019-01-18T05:36:48.771Z,2.23
2019-01-18T05:37:49.021Z,2.22
2019-01-18T05:38:49.400Z,2.22
2019-01-18T05:39:48.842Z,2.21
2019-01-18T05:40:48.832Z,2.19
2019-01-18T05:41:48.739Z,2.19
2019-01-18T05:42:48.749Z,2.19
2019-01-18T05:43:48.818Z,2.17
2019-01-18T05:44:48.818Z,2.17
2019-01-18T05:45:49.235Z,2.16
2019-01-18T05:46:48.837Z,2.2
2019-01-18T05:47:48.861Z,2.18
2019-01-18T05:48:48.770Z,2.15
2019-01-18T05:49:48.763Z,2.16
2019-01-18T05:50:48.539Z,2.18
2019-01-18T05:51:48.807Z,2.19
2019-01-18T05:52:49.106Z,2.19
2019-01-18T05:53:48.891Z,2.2
2019-01-18T05:54:48.761Z,2.21
2019-01-18T05:55:48.745Z,2.2
2019-01-18T05:56:48.773Z,2.19
2019-01-18T05:57:48.781Z,2.2
2019-01-18T05:58:48.739Z,2.21
2019-01-18T05:59:48.797Z,2.23
2019-01-18T06:00:56.482Z,2.22
2019-01-18T06:01:48.963Z,2.22
2019-01-18T06:02:48.931Z,2.24
2019-01-18T06:03:56.326Z,2.22
2019-01-18T06:04:48.986Z,2.21
2019-01-18T06:05:48.833Z,2.21
2019-01-18T06:06:48.817Z,2.19
2019-01-18T06:07:49.052Z,2.2
2019-01-18T06:08:48.746Z,2.19
2019-01-18T06:09:48.704Z,2.2
2019-01-18T06:10:48.696Z,2.18
2019-01-18T06:11:48.712Z,2.19
2019-01-18T06:12:55.411Z,2.22
2019-01-18T06:13:50.528Z,2.22
2019-01-18T06:14:48.760Z,2.24
2019-01-18T06:15:48.806Z,2.25
2019-01-18T06:16:49.046Z,2.27
2019-01-18T06:17:48.667Z,2.25
2019-01-18T06:18:48.662Z,2.25
2019-01-18T06:19:48.991Z,2.25
2019-01-18T06:20:48.971Z,2.24
2019-01-18T06:21:49.024Z,2.2
2019-01-18T06:22:48.936Z,2.2
2019-01-18T06:23:49.109Z,2.21
2019-01-18T06:24:48.727Z,2.21
2019-01-18T06:25:49.622Z,2.24
2019-01-18T06:26:49.038Z,2.29
2019-01-18T06:27:48.758Z,2.25
2019-01-18T06:28:49.502Z,2.26
2019-01-18T06:29:48.857Z,2.31
2019-01-18T06:30:48.990Z,2.3
2019-01-18T06:31:48.775Z,2.35
2019-01-18T06:32:48.750Z,2.32
2019-01-18T06:34:08.921Z,2.29
2019-01-18T06:34:48.704Z,2.28
2019-01-18T06:35:48.966Z,2.27
2019-01-18T06:36:48.844Z,2.26
2019-01-18T06:37:49.572Z,2.26
2019-01-18T06:38:48.648Z,2.27
2019-01-18T06:39:49.047Z,2.26
2019-01-18T06:40:48.900Z,2.32
2019-01-18T06:41:49.601Z,2.33
2019-01-18T06:42:48.773Z,2.33
2019-01-18T06:43:48.806Z,2.32
2019-01-18T06:44:48.724Z,2.31
2019-01-18T06:45:48.486Z,2.29
2019-01-18T06:46:49.209Z,2.31
2019-01-18T06:47:48.679Z,2.29
2019-01-18T06:48:48.696Z,2.31
2019-01-18T06:49:48.773Z,2.31
2019-01-18T06:50:48.793Z,2.31
2019-01-18T06:51:48.952Z,2.31
2019-01-18T06:52:48.987Z,2.24
2019-01-18T06:53:49.682Z,2.2
2019-01-18T06:54:49.026Z,2.22
2019-01-18T06:55:48.727Z,2.23
2019-01-18T06:57:08.224Z,2.22
2019-01-18T06:57:48.888Z,2.23
2019-01-18T06:58:48.898Z,2.25
2019-01-18T06:59:48.636Z,2.3
2019-01-18T07:00:49.441Z,2.32
2019-01-18T07:01:50.498Z,2.37
2019-01-18T07:02:49.229Z,2.31
2019-01-18T07:03:48.962Z,2.29
2019-01-18T07:04:48.684Z,2.26
2019-01-18T07:05:49.386Z,2.28
2019-01-18T07:06:48.837Z,2.3
2019-01-18T07:07:49.369Z,2.28
2019-01-18T07:08:48.610Z,2.3
2019-01-18T07:09:48.653Z,2.25
2019-01-18T07:10:48.987Z,2.24
2019-01-18T07:11:48.693Z,2.25
2019-01-18T07:12:48.733Z,2.24
2019-01-18T07:13:50.440Z,2.28
2019-01-18T07:14:48.819Z,2.27
2019-01-18T07:15:48.608Z,2.3
2019-01-18T07:16:48.763Z,2.31
2019-01-18T07:17:48.776Z,2.35
2019-01-18T07:18:48.614Z,2.36
2019-01-18T07:19:49.194Z,2.37
2019-01-18T07:20:48.686Z,2.4
2019-01-18T07:21:48.870Z,2.43
2019-01-18T07:22:48.666Z,2.47
2019-01-18T07:23:48.639Z,2.48
2019-01-18T07:24:48.647Z,2.48
2019-01-18T07:25:48.853Z,2.48
2019-01-18T07:26:48.574Z,2.5
2019-01-18T07:27:48.592Z,2.5
2019-01-18T07:28:48.689Z,2.52
2019-01-18T07:29:48.780Z,2.5
2019-01-18T07:30:48.633Z,2.52
2019-01-18T07:31:48.611Z,2.54
2019-01-18T07:32:49.616Z,2.53
2019-01-18T07:33:48.598Z,2.53
2019-01-18T07:34:48.842Z,2.55
2019-01-18T07:35:48.601Z,2.55
2019-01-18T07:36:48.599Z,2.55
2019-01-18T07:37:48.637Z,2.55
2019-01-18T07:38:48.530Z,2.52
2019-01-18T07:39:48.648Z,2.54
2019-01-18T07:40:48.694Z,2.55
2019-01-18T07:41:48.633Z,2.56
2019-01-18T07:42:48.624Z,2.57
2019-01-18T07:43:48.758Z,2.54
2019-01-18T07:45:05.786Z,2.52
2019-01-18T07:45:48.722Z,2.48
2019-01-18T07:46:48.127Z,2.49
2019-01-18T07:47:48.781Z,2.49
2019-01-18T07:48:48.722Z,2.51
2019-01-18T07:49:48.853Z,2.55
2019-01-18T07:50:48.609Z,2.55
2019-01-18T07:52:01.102Z,2.52
2019-01-18T07:52:48.741Z,2.48
2019-01-18T07:53:48.942Z,2.34
2019-01-18T07:54:48.581Z,2.36
2019-01-18T07:55:48.596Z,2.38
2019-01-18T07:56:48.644Z,2.37
2019-01-18T07:57:49.091Z,2.36
2019-01-18T07:58:48.982Z,2.32
2019-01-18T07:59:48.920Z,2.32
2019-01-18T08:00:48.936Z,2.32
2019-01-18T08:01:49.088Z,2.32
2019-01-18T08:03:48.896Z,2.33
2019-01-18T08:04:48.543Z,2.34
2019-01-18T08:05:50.216Z,2.34
2019-01-18T08:07:48.641Z,2.32
2019-01-18T08:08:48.865Z,2.33
2019-01-18T08:09:48.578Z,2.36
2019-01-18T08:10:48.544Z,2.38
2019-01-18T08:11:48.643Z,2.38
2019-01-18T08:12:50.341Z,2.39
2019-01-18T08:13:48.767Z,2.39
2019-01-18T08:14:48.728Z,2.4
2019-01-18T08:15:48.628Z,2.35
2019-01-18T08:16:48.771Z,2.37
2019-01-18T08:17:48.593Z,2.35
2019-01-18T08:18:48.795Z,2.36
2019-01-18T08:19:48.557Z,2.34
2019-01-18T08:21:56.734Z,2.32
2019-01-18T08:22:48.777Z,2.32
2019-01-18T08:23:48.555Z,2.32
2019-01-18T08:24:49.297Z,2.31
2019-01-18T08:25:48.610Z,2.3
2019-01-18T08:26:48.705Z,2.31
2019-01-18T08:27:48.489Z,2.31
2019-01-18T08:28:49.757Z,2.32
2019-01-18T08:29:55.511Z,2.32
2019-01-18T08:30:49.529Z,2.32
2019-01-18T08:31:48.406Z,2.33
2019-01-18T08:32:48.583Z,2.32
2019-01-18T08:33:48.546Z,2.32
2019-01-18T08:34:48.602Z,2.3
2019-01-18T08:35:48.506Z,2.3
2019-01-18T08:36:48.793Z,2.32
2019-01-18T08:37:48.856Z,2.32
2019-01-18T08:38:48.530Z,2.35
2019-01-18T08:39:48.619Z,2.37
2019-01-18T08:40:48.547Z,2.39
2019-01-18T08:41:49.497Z,2.41
2019-01-18T08:42:48.474Z,2.43
2019-01-18T08:43:50.327Z,2.46
2019-01-18T08:44:48.908Z,2.48
2019-01-18T08:45:48.634Z,2.48
2019-01-18T08:46:48.483Z,2.5
2019-01-18T08:47:48.697Z,2.52
2019-01-18T08:48:48.729Z,2.51
2019-01-18T08:49:48.505Z,2.55
2019-01-18T08:50:48.436Z,2.56
2019-01-18T08:51:48.645Z,2.56
2019-01-18T08:52:48.444Z,2.6
2019-01-18T08:53:48.616Z,2.57
2019-01-18T08:54:48.466Z,2.58
2019-01-18T08:55:48.537Z,2.55
2019-01-18T08:56:48.960Z,2.56
2019-01-18T08:57:48.635Z,2.56
2019-01-18T08:58:48.621Z,2.56
2019-01-18T08:59:48.545Z,2.54
2019-01-18T09:00:49.374Z,2.5
2019-01-18T09:01:48.854Z,2.53
2019-01-18T09:02:49.336Z,2.5
2019-01-18T09:03:48.674Z,2.5
2019-01-18T09:04:48.531Z,2.49
2019-01-18T09:05:51.692Z,2.5
2019-01-18T09:06:48.547Z,2.5
2019-01-18T09:07:48.487Z,2.51
2019-01-18T09:08:48.540Z,2.51
2019-01-18T09:10:03.371Z,2.5
2019-01-18T09:10:48.421Z,2.5
2019-01-18T09:11:48.470Z,2.5
2019-01-18T09:12:48.421Z,2.49
2019-01-18T09:13:48.538Z,2.48
2019-01-18T09:14:48.455Z,2.5
2019-01-18T09:15:48.552Z,2.49
2019-01-18T09:16:48.628Z,2.5
2019-01-18T09:17:48.421Z,2.52
2019-01-18T09:18:48.446Z,2.51
2019-01-18T09:19:48.433Z,2.55
2019-01-18T09:20:48.417Z,2.56
2019-01-18T09:21:48.395Z,2.56
2019-01-18T09:22:48.433Z,2.56
2019-01-18T09:23:48.468Z,2.56
2019-01-18T09:24:48.602Z,2.56
2019-01-18T09:25:48.456Z,2.57
2019-01-18T09:26:48.638Z,2.57
2019-01-18T09:27:48.652Z,2.6
2019-01-18T09:28:48.725Z,2.58
2019-01-18T09:29:49.737Z,2.59
2019-01-18T09:30:48.558Z,2.62
2019-01-18T09:31:48.802Z,2.64
2019-01-18T09:32:48.470Z,2.65
2019-01-18T09:33:48.561Z,2.65
2019-01-18T09:34:50.295Z,2.65
2019-01-18T09:35:49.209Z,2.64
2019-01-18T09:36:48.699Z,2.66
2019-01-18T09:37:48.685Z,2.69
2019-01-18T09:38:48.563Z,2.67
2019-01-18T09:39:48.814Z,2.69
2019-01-18T09:40:48.452Z,2.7
2019-01-18T09:41:48.839Z,2.71
2019-01-18T09:42:48.701Z,2.75
2019-01-18T09:43:48.812Z,2.77
2019-01-18T09:44:48.688Z,2.8
2019-01-18T09:45:48.522Z,2.82
2019-01-18T09:46:48.682Z,2.86
2019-01-18T09:47:48.459Z,2.86
2019-01-18T09:48:48.645Z,2.9
2019-01-18T09:49:48.649Z,2.91
2019-01-18T09:50:48.483Z,2.95
2019-01-18T09:51:48.459Z,2.97
2019-01-18T09:52:49.312Z,2.98
2019-01-18T09:53:48.445Z,3.03
2019-01-18T09:54:49.225Z,3.05
2019-01-18T09:55:48.430Z,3.06
2019-01-18T09:56:48.545Z,3.04
2019-01-18T09:57:48.636Z,3.07
2019-01-18T09:58:48.615Z,3.05
2019-01-18T09:59:48.573Z,3.02
2019-01-18T10:00:48.427Z,3.04
2019-01-18T10:01:50.250Z,3.09
2019-01-18T10:02:48.408Z,3.13
2019-01-18T10:04:12.534Z,3.16
2019-01-18T10:04:48.737Z,3.2
2019-01-18T10:05:48.456Z,3.21
2019-01-18T10:06:48.696Z,3.22
2019-01-18T10:07:48.724Z,3.2
2019-01-18T10:08:48.814Z,3.21
2019-01-18T10:09:48.507Z,3.22
2019-01-18T10:10:48.412Z,3.26
2019-01-18T10:11:48.373Z,3.24
2019-01-18T10:12:49.689Z,3.18
2019-01-18T10:13:48.749Z,3.17
2019-01-18T10:14:48.321Z,3.18
2019-01-18T10:15:48.432Z,3.18
2019-01-18T10:16:48.447Z,3.16
2019-01-18T10:17:48.571Z,3.2
2019-01-18T10:18:50.058Z,3.21
2019-01-18T10:19:48.455Z,3.24
2019-01-18T10:20:48.592Z,3.28
2019-01-18T10:21:50.187Z,3.31
2019-01-18T10:22:48.453Z,3.33
2019-01-18T10:23:48.462Z,3.34
2019-01-18T10:25:05.366Z,3.38
2019-01-18T10:25:48.368Z,3.39
2019-01-18T10:26:48.405Z,3.43
2019-01-18T10:27:48.664Z,3.46
2019-01-18T10:28:49.310Z,3.47
2019-01-18T10:29:48.756Z,3.48
2019-01-18T10:31:03.393Z,3.48
2019-01-18T10:31:56.644Z,3.46
2019-01-18T10:32:48.434Z,3.36
2019-01-18T10:33:48.532Z,3.38
2019-01-18T10:34:48.696Z,3.38
2019-01-18T10:36:12.161Z,3.44
2019-01-18T10:37:12.358Z,3.41
2019-01-18T10:38:13.696Z,3.44
2019-01-18T10:39:11.891Z,3.45
2019-01-18T10:40:13.711Z,3.47
2019-01-18T10:41:12.155Z,3.49
2019-01-18T10:42:12.702Z,3.49
2019-01-18T10:43:12.246Z,3.5
2019-01-18T10:44:11.936Z,3.5
2019-01-18T10:45:14.024Z,3.51
2019-01-18T10:46:12.904Z,3.52
2019-01-18T10:47:11.917Z,3.53
2019-01-18T10:48:12.706Z,3.54
2019-01-18T10:49:23.759Z,3.44
2019-01-18T10:50:12.025Z,3.43
2019-01-18T10:51:11.905Z,3.38
2019-01-18T10:52:12.420Z,3.4
2019-01-18T10:53:12.412Z,3.43
2019-01-18T10:54:12.254Z,3.44
2019-01-18T10:55:12.093Z,3.45
2019-01-18T10:56:12.332Z,3.5
2019-01-18T10:57:12.011Z,3.52
2019-01-18T10:58:12.420Z,3.56
2019-01-18T10:59:12.288Z,3.57
2019-01-18T11:00:11.890Z,3.61
2019-01-18T11:01:12.011Z,3.63
2019-01-18T11:02:12.022Z,3.63
2019-01-18T11:03:12.236Z,3.64
2019-01-18T11:04:11.965Z,3.62
2019-01-18T11:05:12.805Z,3.6
2019-01-18T11:06:11.912Z,3.58
2019-01-18T11:07:11.925Z,3.5
2019-01-18T11:08:17.937Z,3.47
2019-01-18T11:09:11.887Z,3.48
2019-01-18T11:10:11.935Z,3.5
2019-01-18T11:11:12.177Z,3.5
2019-01-18T11:12:13.682Z,3.5
2019-01-18T11:13:11.864Z,3.51
2019-01-18T11:14:12.380Z,3.44
2019-01-18T11:15:12.512Z,3.43
2019-01-18T11:16:12.105Z,3.42
2019-01-18T11:17:11.898Z,3.43
2019-01-18T11:18:12.763Z,3.47
2019-01-18T11:19:11.966Z,3.5
2019-01-18T11:20:12.245Z,3.48
2019-01-18T11:21:12.433Z,3.45
2019-01-18T11:22:12.248Z,3.48
2019-01-18T11:23:11.952Z,3.47
2019-01-18T11:24:11.954Z,3.49
2019-01-18T11:25:11.864Z,3.48
2019-01-18T11:26:11.806Z,3.45
2019-01-18T11:27:11.847Z,3.47
2019-01-18T11:28:12.315Z,3.47
2019-01-18T11:29:12.193Z,3.5
2019-01-18T11:30:19.543Z,3.51
2019-01-18T11:31:11.832Z,3.48
2019-01-18T11:32:14.295Z,3.48
2019-01-18T11:33:11.813Z,3.49
2019-01-18T11:34:12.173Z,3.5
2019-01-18T11:35:11.838Z,3.39
2019-01-18T11:36:13.662Z,3.42
2019-01-18T11:37:12.350Z,3.44
2019-01-18T11:38:12.461Z,3.48
2019-01-18T11:39:11.804Z,3.5
2019-01-18T11:40:11.785Z,3.56
2019-01-18T11:41:12.517Z,3.57
2019-01-18T11:42:13.023Z,3.6
2019-01-18T11:43:11.885Z,3.65
2019-01-18T11:44:11.967Z,3.7
2019-01-18T11:45:11.938Z,3.75
2019-01-18T11:46:11.798Z,3.78
2019-01-18T11:47:12.330Z,3.75
2019-01-18T11:48:11.905Z,3.7
2019-01-18T11:49:11.895Z,3.66
2019-01-18T11:50:12.226Z,3.63
2019-01-18T11:51:12.204Z,3.65
2019-01-18T11:52:11.965Z,3.66
2019-01-18T11:53:11.794Z,3.69
2019-01-18T11:54:20.354Z,3.73
2019-01-18T11:55:11.795Z,3.69
2019-01-18T11:56:12.155Z,3.71
2019-01-18T11:57:12.202Z,3.7
2019-01-18T11:58:12.274Z,3.7
2019-01-18T11:59:42.303Z,3.71
2019-01-18T12:00:40.782Z,3.74
2019-01-18T12:01:40.833Z,3.67
2019-01-18T12:02:42.265Z,3.55
2019-01-18T12:03:40.371Z,3.56
2019-01-18T12:04:40.498Z,3.59
2019-01-18T12:05:40.596Z,3.54
2019-01-18T12:06:47.576Z,3.5
2019-01-18T12:07:49.696Z,3.5
2019-01-18T12:08:42.269Z,3.52
2019-01-18T12:09:40.711Z,3.57
2019-01-18T12:10:40.234Z,3.57
2019-01-18T12:11:40.652Z,3.52
2019-01-18T12:12:40.704Z,3.55
2019-01-18T12:13:40.629Z,3.55
2019-01-18T12:14:40.453Z,3.58
2019-01-18T12:15:40.653Z,3.58
2019-01-18T12:16:40.549Z,3.6
2019-01-18T12:17:40.429Z,3.65
2019-01-18T12:18:40.519Z,3.63
2019-01-18T12:19:40.216Z,3.63
2019-01-18T12:20:40.483Z,3.64
2019-01-18T12:21:40.433Z,3.56
2019-01-18T12:22:40.806Z,3.52
2019-01-18T12:23:40.422Z,3.51
2019-01-18T12:24:40.539Z,3.53
2019-01-18T12:25:40.414Z,3.53
2019-01-18T12:26:40.730Z,3.53
2019-01-18T12:27:40.425Z,3.57
2019-01-18T12:28:40.435Z,3.57
2019-01-18T12:29:40.522Z,3.6
2019-01-18T12:30:41.207Z,3.62
2019-01-18T12:31:40.776Z,3.62
2019-01-18T12:32:42.251Z,3.64
2019-01-18T12:33:40.514Z,3.58
2019-01-18T12:34:40.562Z,3.54
2019-01-18T12:35:40.486Z,3.56
2019-01-18T12:36:40.681Z,3.57
2019-01-18T12:37:41.057Z,3.56
2019-01-18T12:38:40.707Z,3.56
2019-01-18T12:39:41.367Z,3.56
2019-01-18T12:40:40.550Z,3.57
2019-01-18T12:41:40.771Z,3.57
2019-01-18T12:42:40.963Z,3.56
2019-01-18T12:43:40.411Z,3.57
2019-01-18T12:44:40.618Z,3.55
2019-01-18T12:45:41.923Z,3.52
2019-01-18T12:46:40.726Z,3.5
2019-01-18T12:47:40.796Z,3.57
2019-01-18T12:48:40.699Z,3.57
2019-01-18T12:49:40.603Z,3.58
2019-01-18T12:50:40.683Z,3.59
2019-01-18T12:51:40.466Z,3.59
2019-01-18T12:52:40.379Z,3.62
2019-01-18T12:53:40.495Z,3.54
2019-01-18T12:54:40.944Z,3.57
2019-01-18T12:55:40.736Z,3.59
2019-01-18T12:56:41.006Z,3.61
2019-01-18T12:57:40.675Z,3.62
2019-01-18T12:58:40.479Z,3.64
2019-01-18T12:59:40.517Z,3.65
2019-01-18T13:00:40.381Z,3.68
2019-01-18T13:01:40.545Z,3.67
2019-01-18T13:02:40.551Z,3.67
2019-01-18T13:03:40.505Z,3.68
2019-01-18T13:04:40.620Z,3.68
2019-01-18T13:05:40.761Z,3.67
2019-01-18T13:06:41.626Z,3.68
2019-01-18T13:07:40.362Z,3.7
2019-01-18T13:08:40.798Z,3.71
2019-01-18T13:09:40.448Z,3.74
2019-01-18T13:10:40.659Z,3.76
2019-01-18T13:11:40.333Z,3.73
2019-01-18T13:12:40.475Z,3.69
2019-01-18T13:13:40.475Z,3.62
2019-01-18T13:14:40.872Z,3.68
2019-01-18T13:15:40.424Z,3.69
2019-01-18T13:16:40.440Z,3.71
2019-01-18T13:17:40.737Z,3.72
2019-01-18T13:18:41.304Z,3.71
2019-01-18T13:19:40.373Z,3.74
2019-01-18T13:20:40.451Z,3.71
2019-01-18T13:21:40.819Z,3.7
2019-01-18T13:22:40.794Z,3.67
2019-01-18T13:23:40.719Z,3.69
2019-01-18T13:24:40.450Z,3.71
2019-01-18T13:25:40.409Z,3.74
2019-01-18T13:26:40.607Z,3.73
2019-01-18T13:27:40.350Z,3.75
2019-01-18T13:28:40.371Z,3.72
2019-01-18T13:29:40.385Z,3.71